CheckWX is a tool to help pilots better visualize weather data.  It is not intended as a substitute for an official pre-flight weather briefing.

05:45:48 UTC

FWKI METAR
Lilongwe International Airport
Lilongwe, Malawi
Current

46 mins ago

FWKI 200500Z 08005KT 9999 FEW008 SCT015 BKN080 18/18 Q1019 NOSIG
Observed
Feb-20 @ 05:00 UTC
Wind
  • 080° at 5 KTS
Visibility
10,000+ meters
Flight Rules
VFR
Cloud Levels
  • Few at 800' AGL
  • Scattered at 1,500' AGL
  • Broken at 8,000' AGL
Temperature
18°C / 64°F
Dewpoint
18°C / 64°F
Humidity
100%
Altimeter
30.09" Hg
Pressure
1018.92 hPa
Previous

2 hours ago

FWKI 200400Z 00000KT 9999 FEW006 FEW015CB BKN080 19/17 Q1019 TEMPO -RA
Observed
Feb-20 @ 04:00 UTC
Visibility
10,000+ meters
Flight Rules
VFR
Cloud Levels
  • Few at 600' AGL
  • Few at 1,500' AGL
  • Broken at 8,000' AGL
Temperature
19°C / 66°F
Dewpoint
17°C / 63°F
Humidity
88%
Altimeter
30.09" Hg
Pressure
1018.92 hPa
Previous

2 hours ago

FWKI 200400Z 00000KT 9999 FEW006 FEW015 BKN080 19/17 Q1019 TEMPO -RA
Observed
Feb-20 @ 04:00 UTC
Visibility
10,000+ meters
Flight Rules
VFR
Cloud Levels
  • Few at 600' AGL
  • Few at 1,500' AGL
  • Broken at 8,000' AGL
Temperature
19°C / 66°F
Dewpoint
17°C / 63°F
Humidity
88%
Altimeter
30.09" Hg
Pressure
1018.92 hPa